createdAt,value
2022-10-12T00:00:28.357Z,19.20
2022-10-12T00:02:55.716Z,19.20
2022-10-12T00:05:23.013Z,19.20
2022-10-12T00:07:50.336Z,19.10
2022-10-12T00:10:18.698Z,19.10
2022-10-12T00:12:46.021Z,19.10
2022-10-12T00:15:13.345Z,19.10
2022-10-12T00:17:40.748Z,19.10
2022-10-12T00:20:08.729Z,19.10
2022-10-12T00:22:36.028Z,19.10
2022-10-12T00:25:03.640Z,19.10
2022-10-12T00:27:30.949Z,19.00
2022-10-12T00:29:58.288Z,19.00
2022-10-12T00:32:25.561Z,18.90
2022-10-12T00:34:52.857Z,18.80
2022-10-12T00:37:20.160Z,18.80
2022-10-12T00:39:48.702Z,18.80
2022-10-12T00:42:19.033Z,18.80
2022-10-12T00:44:48.548Z,18.80
2022-10-12T00:47:18.992Z,18.80
2022-10-12T00:49:52.012Z,18.80
2022-10-12T00:52:23.047Z,18.70
2022-10-12T00:54:52.830Z,18.70
2022-10-12T00:57:21.134Z,18.70
2022-10-12T01:00:02.592Z,18.70
2022-10-12T01:02:32.713Z,18.70
2022-10-12T01:05:00.768Z,18.60
2022-10-12T01:07:28.232Z,18.60
2022-10-12T01:09:59.296Z,18.60
2022-10-12T01:12:28.851Z,18.60
2022-10-12T01:14:58.031Z,18.70
2022-10-12T01:17:47.157Z,18.60
2022-10-12T01:20:35.712Z,18.70
2022-10-12T01:23:26.529Z,18.60
2022-10-12T01:26:19.994Z,18.60
2022-10-12T01:29:21.302Z,18.60
2022-10-12T01:32:29.925Z,18.60
2022-10-12T01:35:12.289Z,18.50
2022-10-12T01:37:51.781Z,18.50
2022-10-12T01:40:31.150Z,18.40
2022-10-12T01:42:58.895Z,18.40
2022-10-12T01:45:26.225Z,18.30
2022-10-12T01:47:55.314Z,18.30
2022-10-12T01:50:32.036Z,18.30
2022-10-12T01:53:30.157Z,18.30
2022-10-12T01:56:16.597Z,18.30
2022-10-12T01:58:55.022Z,18.30
2022-10-12T02:01:37.286Z,18.30
2022-10-12T02:04:22.736Z,18.30
2022-10-12T02:06:56.487Z,18.30
2022-10-12T02:09:30.358Z,18.30
2022-10-12T02:12:10.109Z,18.30
2022-10-12T02:14:52.832Z,18.20
2022-10-12T02:17:22.784Z,18.20
2022-10-12T02:19:58.795Z,18.20
2022-10-12T02:22:34.111Z,18.10
2022-10-12T02:25:05.346Z,18.00
2022-10-12T02:27:35.953Z,18.00
2022-10-12T02:30:03.905Z,18.00
2022-10-12T02:33:07.486Z,18.00
2022-10-12T02:35:45.718Z,18.00
2022-10-12T02:38:27.170Z,17.90
2022-10-12T02:41:06.313Z,17.90
2022-10-12T02:43:49.095Z,17.90
2022-10-12T02:46:18.751Z,17.90
2022-10-12T02:48:48.938Z,17.90
2022-10-12T02:51:16.435Z,17.90
2022-10-12T02:53:45.192Z,17.80
2022-10-12T02:56:14.233Z,17.80
2022-10-12T02:58:46.320Z,17.80
2022-10-12T03:01:14.611Z,17.70
2022-10-12T03:03:41.972Z,17.70
2022-10-12T03:06:09.429Z,17.70
2022-10-12T03:08:36.693Z,17.70
2022-10-12T03:11:05.398Z,17.80
2022-10-12T03:13:32.689Z,17.70
2022-10-12T03:16:07.527Z,17.80
2022-10-12T03:18:35.403Z,17.80
2022-10-12T03:21:03.252Z,17.80
2022-10-12T03:23:30.568Z,17.80
2022-10-12T03:25:57.896Z,17.80
2022-10-12T03:28:25.268Z,17.80
2022-10-12T03:30:52.704Z,17.80
2022-10-12T03:33:20.279Z,17.80
2022-10-12T03:35:47.986Z,17.80
2022-10-12T03:38:16.504Z,17.70
2022-10-12T03:40:45.080Z,17.70
2022-10-12T03:43:12.695Z,17.70
2022-10-12T03:45:40.055Z,17.60
2022-10-12T03:48:07.568Z,17.60
2022-10-12T03:50:35.446Z,17.60
2022-10-12T03:53:04.931Z,17.60
2022-10-12T03:55:33.098Z,17.60
2022-10-12T03:58:00.582Z,17.60
2022-10-12T04:00:28.242Z,17.60
2022-10-12T04:02:55.706Z,17.60
2022-10-12T04:05:23.374Z,17.60
2022-10-12T04:07:50.847Z,17.60
2022-10-12T04:10:18.320Z,17.60
2022-10-12T04:12:46.058Z,17.60
2022-10-12T04:15:13.826Z,17.60
2022-10-12T04:17:41.669Z,17.50
2022-10-12T04:20:11.350Z,17.50
2022-10-12T04:22:39.041Z,17.50
2022-10-12T04:25:06.918Z,17.50
2022-10-12T04:27:34.538Z,17.50
2022-10-12T04:30:02.029Z,17.40
2022-10-12T04:32:31.910Z,17.40
2022-10-12T04:35:02.456Z,17.40
2022-10-12T04:37:29.691Z,17.40
2022-10-12T04:39:57.131Z,17.40
2022-10-12T04:42:24.389Z,17.40
2022-10-12T04:44:51.651Z,17.40
2022-10-12T04:47:19.528Z,17.50
2022-10-12T04:49:46.789Z,17.50
2022-10-12T04:52:14.209Z,17.40
2022-10-12T04:54:41.515Z,17.50
2022-10-12T04:57:09.005Z,17.50
2022-10-12T04:59:36.328Z,17.50
2022-10-12T05:02:03.721Z,17.50
2022-10-12T05:04:31.065Z,17.50
2022-10-12T05:06:58.380Z,17.50
2022-10-12T05:09:25.742Z,17.50
2022-10-12T05:11:53.034Z,17.50
2022-10-12T05:14:20.471Z,17.50
2022-10-12T05:16:47.789Z,17.50
2022-10-12T05:19:15.197Z,17.50
2022-10-12T05:21:42.583Z,17.50
2022-10-12T05:24:11.048Z,17.50
2022-10-12T05:26:38.345Z,17.50
2022-10-12T05:29:05.733Z,17.50
2022-10-12T05:31:33.335Z,17.50
2022-10-12T05:34:00.676Z,17.50
2022-10-12T05:36:28.001Z,17.50
2022-10-12T05:38:55.405Z,17.50
2022-10-12T05:41:22.881Z,17.40
2022-10-12T05:43:50.207Z,17.40
2022-10-12T05:46:17.463Z,17.50
2022-10-12T05:48:44.776Z,17.50
2022-10-12T05:51:12.125Z,17.50
2022-10-12T05:53:39.432Z,17.50
2022-10-12T05:56:07.090Z,17.50
2022-10-12T05:58:34.505Z,17.50
2022-10-12T06:01:07.823Z,17.50
2022-10-12T06:03:35.382Z,17.50
2022-10-12T06:06:03.488Z,17.50
2022-10-12T06:08:31.683Z,17.50
2022-10-12T06:10:59.246Z,17.50
2022-10-12T06:13:26.811Z,17.50
2022-10-12T06:15:55.043Z,17.60
2022-10-12T06:18:22.684Z,17.60
2022-10-12T06:21:20.962Z,17.70
2022-10-12T06:23:41.879Z,17.70
2022-10-12T06:26:09.190Z,17.70
2022-10-12T06:28:36.528Z,17.70
2022-10-12T06:31:04.125Z,17.80
2022-10-12T06:33:31.433Z,17.80
2022-10-12T06:35:58.812Z,17.80
2022-10-12T06:38:26.157Z,17.90
2022-10-12T06:40:53.660Z,18.00
2022-10-12T06:43:22.873Z,18.00
2022-10-12T06:45:50.382Z,18.10
2022-10-12T06:48:18.811Z,18.10
2022-10-12T06:50:47.869Z,18.20
2022-10-12T06:53:15.348Z,18.30
2022-10-12T06:55:42.677Z,18.30
2022-10-12T06:58:10.097Z,18.30
2022-10-12T07:00:37.685Z,18.30
2022-10-12T07:03:05.186Z,18.50
2022-10-12T07:05:32.472Z,18.50
2022-10-12T07:07:59.747Z,18.60
2022-10-12T07:10:28.201Z,18.60
2022-10-12T07:12:55.784Z,18.70
2022-10-12T07:15:23.202Z,18.70
2022-10-12T07:17:50.660Z,18.80
2022-10-12T07:20:18.018Z,18.80
2022-10-12T07:22:45.439Z,18.90
2022-10-12T07:25:12.752Z,18.90
2022-10-12T07:27:40.778Z,19.00
2022-10-12T07:30:09.159Z,19.10
2022-10-12T07:32:36.471Z,19.20
2022-10-12T07:35:04.089Z,19.20
2022-10-12T07:37:31.367Z,19.30
2022-10-12T07:39:58.624Z,19.40
2022-10-12T07:42:25.926Z,19.50
2022-10-12T07:44:53.236Z,19.60
2022-10-12T07:47:20.647Z,19.60
2022-10-12T07:49:47.947Z,19.70
2022-10-12T07:52:15.245Z,19.80
2022-10-12T07:54:42.559Z,19.90
2022-10-12T07:57:09.897Z,20.00
2022-10-12T07:59:37.251Z,20.00
2022-10-12T08:02:04.709Z,20.20
2022-10-12T08:04:32.109Z,20.20
2022-10-12T08:06:59.664Z,20.30
2022-10-12T08:09:26.982Z,20.30
2022-10-12T08:11:56.091Z,20.30
2022-10-12T08:14:23.499Z,20.40
2022-10-12T08:16:50.874Z,20.40
2022-10-12T08:19:18.272Z,20.50
2022-10-12T08:21:45.581Z,20.60
2022-10-12T08:24:13.533Z,20.60
2022-10-12T08:26:41.068Z,20.70
2022-10-12T08:29:10.047Z,20.80
2022-10-12T08:31:37.425Z,20.90
2022-10-12T08:34:05.005Z,21.00
2022-10-12T08:36:32.742Z,21.00
2022-10-12T08:39:00.112Z,21.10
2022-10-12T08:42:08.828Z,21.10
2022-10-12T08:44:58.303Z,21.20
2022-10-12T08:47:41.149Z,21.30
2022-10-12T08:50:18.241Z,21.30
2022-10-12T08:53:11.566Z,21.40
2022-10-12T08:55:44.302Z,21.40
2022-10-12T08:58:14.668Z,21.50
2022-10-12T09:00:42.718Z,21.60
2022-10-12T09:03:37.559Z,21.70
2022-10-12T09:06:14.186Z,21.80
2022-10-12T09:08:47.314Z,21.90
2022-10-12T09:11:33.296Z,22.00
2022-10-12T09:14:20.860Z,22.20
2022-10-12T09:16:49.845Z,22.30
2022-10-12T09:19:23.559Z,22.20
2022-10-12T09:21:53.800Z,22.20
2022-10-12T09:24:30.132Z,22.30
2022-10-12T09:27:00.724Z,22.30
2022-10-12T09:29:31.282Z,22.30
2022-10-12T09:32:31.537Z,22.40
2022-10-12T09:34:59.977Z,22.50
2022-10-12T09:37:33.130Z,22.60
2022-10-12T09:40:00.441Z,22.70
2022-10-12T09:42:28.040Z,22.70
2022-10-12T09:45:20.871Z,22.90
2022-10-12T09:48:12.977Z,23.00
2022-10-12T09:50:44.631Z,23.20
2022-10-12T09:53:21.240Z,23.30
2022-10-12T09:56:04.654Z,23.40
2022-10-12T09:58:35.003Z,23.50
2022-10-12T10:01:33.068Z,23.60
2022-10-12T10:04:23.426Z,23.80
2022-10-12T10:06:51.323Z,24.00
2022-10-12T10:09:33.289Z,24.20
2022-10-12T10:12:14.540Z,24.50
2022-10-12T10:14:45.222Z,24.80
2022-10-12T10:17:23.129Z,25.00
2022-10-12T10:19:55.397Z,25.30
2022-10-12T10:22:24.314Z,25.90
2022-10-12T10:24:59.755Z,27.30
2022-10-12T10:27:39.997Z,28.90
2022-10-12T10:30:29.467Z,30.40
2022-10-12T10:33:15.475Z,30.90
2022-10-12T10:36:02.310Z,32.70
2022-10-12T10:38:32.914Z,32.70
2022-10-12T10:41:05.522Z,32.90
2022-10-12T10:43:33.097Z,34.00
2022-10-12T10:46:03.448Z,35.00
2022-10-12T10:48:39.597Z,36.40
2022-10-12T10:51:07.544Z,37.00
2022-10-12T10:53:47.863Z,38.00
2022-10-12T10:56:28.717Z,38.60
2022-10-12T10:58:59.829Z,39.30
2022-10-12T11:01:45.573Z,39.70
2022-10-12T11:04:39.182Z,40.20
2022-10-12T11:07:16.885Z,40.30
2022-10-12T11:09:49.551Z,39.90
2022-10-12T11:12:30.246Z,39.60
2022-10-12T11:15:08.320Z,40.20
2022-10-12T11:17:42.091Z,40.90
2022-10-12T11:20:30.476Z,41.20
2022-10-12T11:23:11.899Z,41.70
2022-10-12T11:26:05.080Z,42.20
2022-10-12T11:28:33.044Z,42.50
2022-10-12T11:31:02.100Z,42.40
2022-10-12T11:33:39.170Z,41.60
2022-10-12T11:36:16.282Z,41.30
2022-10-12T11:38:48.225Z,40.70
2022-10-12T11:41:34.795Z,40.40
2022-10-12T11:44:30.829Z,40.20
2022-10-12T11:47:17.243Z,39.80
2022-10-12T11:50:20.811Z,40.20
2022-10-12T11:52:51.848Z,40.80
2022-10-12T11:55:37.705Z,41.00
2022-10-12T11:58:13.928Z,40.60
2022-10-12T12:01:04.712Z,40.40
2022-10-12T12:03:45.033Z,40.40
2022-10-12T12:06:30.403Z,40.80
2022-10-12T12:08:58.257Z,40.80
2022-10-12T12:11:28.908Z,40.90
2022-10-12T12:14:25.255Z,41.10
2022-10-12T12:17:17.158Z,39.60
2022-10-12T12:19:53.999Z,39.20
2022-10-12T12:22:29.948Z,39.00
2022-10-12T12:25:05.583Z,38.10
2022-10-12T12:27:37.501Z,37.10
2022-10-12T12:30:18.904Z,36.10
2022-10-12T12:32:50.510Z,35.00
2022-10-12T12:35:37.847Z,33.90
2022-10-12T12:38:14.046Z,33.00
2022-10-12T12:40:50.296Z,32.00
2022-10-12T12:43:23.481Z,31.30
2022-10-12T12:46:02.316Z,31.00
2022-10-12T12:48:38.795Z,30.60
2022-10-12T12:51:17.746Z,30.30
2022-10-12T12:53:50.105Z,30.00
2022-10-12T12:56:28.489Z,29.60
2022-10-12T12:59:22.509Z,29.30
2022-10-12T13:02:11.097Z,29.00
2022-10-12T13:04:58.416Z,28.80
2022-10-12T13:07:44.243Z,28.50
2022-10-12T13:10:29.512Z,28.40
2022-10-12T13:13:11.738Z,28.30
2022-10-12T13:16:04.902Z,28.10
2022-10-12T13:18:59.142Z,27.80
2022-10-12T13:21:30.081Z,27.70
2022-10-12T13:24:07.100Z,27.50
2022-10-12T13:26:36.132Z,27.40
2022-10-12T13:29:11.889Z,27.40
2022-10-12T13:31:46.536Z,27.30
2022-10-12T13:34:28.275Z,27.30
2022-10-12T13:37:01.694Z,27.20
2022-10-12T13:39:29.965Z,27.10
2022-10-12T13:42:00.824Z,27.00
2022-10-12T13:44:31.354Z,27.00
2022-10-12T13:47:01.814Z,27.00
2022-10-12T13:49:33.626Z,27.00
2022-10-12T13:52:15.090Z,27.00
2022-10-12T13:54:43.820Z,26.90
2022-10-12T13:57:42.777Z,26.90
2022-10-12T14:00:19.956Z,26.80
2022-10-12T14:02:55.001Z,26.70
2022-10-12T14:05:24.847Z,26.70
2022-10-12T14:07:54.384Z,26.60
2022-10-12T14:10:51.376Z,26.50
2022-10-12T14:13:27.584Z,26.50
2022-10-12T14:15:56.092Z,26.30
2022-10-12T14:18:44.157Z,26.20
2022-10-12T14:21:25.760Z,26.10
2022-10-12T14:23:59.822Z,26.00
2022-10-12T14:26:45.839Z,25.90
2022-10-12T14:29:41.209Z,25.90
2022-10-12T14:32:11.513Z,25.90
2022-10-12T14:34:43.852Z,25.90
2022-10-12T14:37:17.225Z,25.80
2022-10-12T14:39:47.469Z,25.70
2022-10-12T14:42:53.550Z,25.70
2022-10-12T14:45:25.720Z,25.60
2022-10-12T14:47:53.218Z,25.60
2022-10-12T14:50:22.294Z,25.50
2022-10-12T14:52:58.656Z,25.50
2022-10-12T14:55:29.002Z,25.50
2022-10-12T14:57:56.569Z,25.40
2022-10-12T15:00:32.485Z,25.40
2022-10-12T15:03:00.110Z,25.40
2022-10-12T15:05:29.128Z,25.30
2022-10-12T15:07:56.494Z,25.30
2022-10-12T15:10:25.560Z,25.30
2022-10-12T15:12:54.211Z,25.20
2022-10-12T15:15:42.477Z,25.20
2022-10-12T15:18:10.011Z,25.20
2022-10-12T15:20:38.208Z,25.10
2022-10-12T15:23:06.237Z,25.10
2022-10-12T15:25:44.157Z,25.00
2022-10-12T15:28:11.630Z,25.00
2022-10-12T15:30:52.106Z,24.90
2022-10-12T15:33:26.493Z,24.80
2022-10-12T15:35:53.917Z,24.80
2022-10-12T15:38:22.441Z,24.70
2022-10-12T15:40:51.986Z,24.70
2022-10-12T15:43:20.409Z,24.70
2022-10-12T15:45:47.892Z,24.60
2022-10-12T15:48:15.248Z,24.60
2022-10-12T15:50:47.928Z,24.60
2022-10-12T15:53:17.876Z,24.50
2022-10-12T15:55:45.280Z,24.50
2022-10-12T15:58:13.152Z,24.50
2022-10-12T16:00:40.554Z,24.40
2022-10-12T16:03:13.432Z,24.40
2022-10-12T16:05:40.709Z,24.40
2022-10-12T16:08:08.092Z,24.40
2022-10-12T16:10:38.304Z,24.30
2022-10-12T16:13:07.549Z,24.30
2022-10-12T16:15:36.205Z,24.20
2022-10-12T16:18:05.293Z,24.20
2022-10-12T16:20:37.346Z,24.10
2022-10-12T16:23:08.517Z,24.10
2022-10-12T16:25:36.257Z,24.10
2022-10-12T16:28:03.973Z,24.10
2022-10-12T16:30:31.673Z,24.10
2022-10-12T16:32:58.958Z,24.10
2022-10-12T16:35:26.618Z,24.00
2022-10-12T16:37:53.996Z,24.00
2022-10-12T16:40:21.320Z,24.00
2022-10-12T16:42:55.738Z,23.90
2022-10-12T16:45:24.188Z,23.80
2022-10-12T16:47:51.717Z,23.80
2022-10-12T16:50:20.219Z,23.70
2022-10-12T16:52:47.795Z,23.70
2022-10-12T16:55:15.703Z,23.50
2022-10-12T16:57:43.164Z,23.40
2022-10-12T17:00:13.868Z,23.40
2022-10-12T17:02:41.524Z,23.30
2022-10-12T17:05:09.064Z,23.30
2022-10-12T17:07:36.429Z,23.30
2022-10-12T17:10:04.433Z,23.30
2022-10-12T17:12:31.749Z,23.30
2022-10-12T17:14:59.075Z,23.30
2022-10-12T17:17:26.560Z,23.30
2022-10-12T17:19:54.020Z,23.30
2022-10-12T17:22:21.378Z,23.30
2022-10-12T17:24:48.727Z,23.30
2022-10-12T17:27:16.953Z,23.30
2022-10-12T17:29:44.534Z,23.30
2022-10-12T17:32:12.057Z,23.20
2022-10-12T17:34:45.045Z,23.20
2022-10-12T17:37:13.872Z,23.20
2022-10-12T17:39:43.828Z,23.20
2022-10-12T17:42:11.652Z,23.20
2022-10-12T17:44:38.968Z,23.10
2022-10-12T17:47:06.421Z,23.10
2022-10-12T17:49:33.781Z,23.10
2022-10-12T17:52:01.183Z,23.10
2022-10-12T17:54:28.667Z,23.10
2022-10-12T17:56:56.708Z,23.00
2022-10-12T17:59:24.948Z,22.80
2022-10-12T18:01:52.916Z,22.70
2022-10-12T18:04:20.931Z,22.70
2022-10-12T18:06:48.993Z,22.70
2022-10-12T18:09:16.549Z,22.60
2022-10-12T18:11:44.476Z,22.60
2022-10-12T18:14:13.304Z,22.60
2022-10-12T18:16:41.053Z,22.50
2022-10-12T18:19:10.296Z,22.50
2022-10-12T18:21:38.640Z,22.50
2022-10-12T18:24:15.982Z,22.40
2022-10-12T18:26:47.489Z,22.40
2022-10-12T18:29:18.103Z,22.40
2022-10-12T18:31:45.516Z,22.40
2022-10-12T18:34:12.931Z,22.30
2022-10-12T18:36:42.756Z,22.30
2022-10-12T18:39:10.293Z,22.20
2022-10-12T18:41:37.699Z,22.20
2022-10-12T18:44:05.077Z,22.20
2022-10-12T18:46:34.400Z,22.20
2022-10-12T18:49:05.102Z,22.20
2022-10-12T18:51:35.665Z,22.10
2022-10-12T18:54:04.344Z,22.10
2022-10-12T18:56:34.205Z,22.00
2022-10-12T18:59:02.396Z,22.00
2022-10-12T19:01:31.335Z,22.00
2022-10-12T19:04:00.232Z,22.00
2022-10-12T19:06:30.347Z,21.90
2022-10-12T19:08:58.838Z,21.90
2022-10-12T19:11:27.776Z,21.80
2022-10-12T19:13:56.430Z,21.70
2022-10-12T19:16:24.608Z,21.70
2022-10-12T19:18:57.615Z,21.60
2022-10-12T19:21:25.345Z,21.50
2022-10-12T19:23:53.277Z,21.50
2022-10-12T19:26:23.363Z,21.50
2022-10-12T19:28:52.184Z,21.50
2022-10-12T19:31:24.841Z,21.50
2022-10-12T19:33:56.497Z,21.40
2022-10-12T19:36:25.117Z,21.40
2022-10-12T19:39:05.237Z,21.30
2022-10-12T19:41:32.701Z,21.30
2022-10-12T19:44:01.219Z,21.30
2022-10-12T19:46:28.854Z,21.30
2022-10-12T19:48:58.216Z,21.30
2022-10-12T19:51:27.868Z,21.20
2022-10-12T19:53:57.369Z,21.20
2022-10-12T19:56:25.500Z,21.20
2022-10-12T19:58:55.477Z,21.10
2022-10-12T20:01:35.387Z,21.10
2022-10-12T20:04:07.211Z,21.10
2022-10-12T20:06:34.537Z,21.10
2022-10-12T20:09:02.936Z,21.00
2022-10-12T20:11:30.381Z,21.00
2022-10-12T20:13:58.271Z,21.00
2022-10-12T20:16:29.010Z,20.90
2022-10-12T20:18:58.396Z,20.90
2022-10-12T20:21:26.023Z,20.90
2022-10-12T20:23:53.357Z,20.90
2022-10-12T20:26:26.033Z,20.90
2022-10-12T20:28:54.999Z,20.80
2022-10-12T20:31:27.512Z,20.80
2022-10-12T20:33:58.277Z,20.80
2022-10-12T20:36:29.260Z,20.70
2022-10-12T20:39:00.216Z,20.70
2022-10-12T20:41:28.040Z,20.70
2022-10-12T20:43:57.389Z,20.70
2022-10-12T20:46:25.896Z,20.70
2022-10-12T20:48:59.520Z,20.70
2022-10-12T20:51:29.599Z,20.60
2022-10-12T20:54:00.387Z,20.60
2022-10-12T20:56:28.921Z,20.60
2022-10-12T20:58:56.524Z,20.60
2022-10-12T21:01:26.027Z,20.50
2022-10-12T21:03:54.337Z,20.50
2022-10-12T21:06:23.466Z,20.40
2022-10-12T21:08:52.936Z,20.40
2022-10-12T21:11:20.881Z,20.30
2022-10-12T21:13:48.537Z,20.30
2022-10-12T21:16:16.355Z,20.20
2022-10-12T21:18:43.631Z,20.30
2022-10-12T21:21:19.547Z,20.20
2022-10-12T21:23:55.967Z,20.20
2022-10-12T21:26:26.497Z,20.20
2022-10-12T21:28:54.369Z,20.20
2022-10-12T21:31:22.678Z,20.20
2022-10-12T21:33:50.040Z,20.10
2022-10-12T21:36:26.432Z,20.10
2022-10-12T21:38:54.472Z,20.10
2022-10-12T21:41:24.414Z,20.10
2022-10-12T21:43:52.633Z,20.10
2022-10-12T21:46:22.742Z,20.10
2022-10-12T21:48:50.691Z,20.00
2022-10-12T21:51:19.330Z,20.00
2022-10-12T21:53:46.877Z,20.00
2022-10-12T21:56:15.958Z,20.00
2022-10-12T21:58:43.934Z,19.90
2022-10-12T22:01:14.244Z,19.90
2022-10-12T22:03:42.908Z,19.90
2022-10-12T22:06:15.419Z,19.90
2022-10-12T22:08:43.700Z,19.90
2022-10-12T22:11:14.011Z,19.90
2022-10-12T22:13:41.408Z,19.90
2022-10-12T22:16:11.653Z,19.90
2022-10-12T22:18:39.749Z,19.80
2022-10-12T22:21:12.722Z,19.80
2022-10-12T22:23:40.440Z,19.80
2022-10-12T22:26:13.534Z,19.80
2022-10-12T22:28:51.123Z,19.80
2022-10-12T22:31:20.460Z,19.80
2022-10-12T22:33:47.819Z,19.80
2022-10-12T22:36:15.777Z,19.80
2022-10-12T22:38:43.504Z,19.80
2022-10-12T22:41:16.150Z,19.90
2022-10-12T22:43:54.596Z,19.90
2022-10-12T22:46:23.988Z,19.80
2022-10-12T22:48:52.357Z,19.90
2022-10-12T22:51:25.806Z,19.90
2022-10-12T22:53:53.128Z,19.90
2022-10-12T22:56:20.463Z,19.90
2022-10-12T22:58:48.953Z,19.90
2022-10-12T23:01:17.656Z,19.90
2022-10-12T23:03:45.924Z,19.90
2022-10-12T23:06:15.921Z,20.00
2022-10-12T23:08:43.511Z,20.00
2022-10-12T23:11:16.931Z,20.00
2022-10-12T23:13:44.699Z,20.00
2022-10-12T23:16:14.730Z,19.90
2022-10-12T23:18:42.148Z,19.90
2022-10-12T23:21:13.005Z,19.90
2022-10-12T23:23:41.319Z,19.90
2022-10-12T23:26:14.692Z,19.90
2022-10-12T23:28:42.307Z,19.80
2022-10-12T23:31:18.200Z,19.80
2022-10-12T23:33:46.171Z,19.80
2022-10-12T23:36:16.309Z,19.80
2022-10-12T23:38:44.574Z,19.70
2022-10-12T23:41:13.065Z,19.70
2022-10-12T23:43:40.690Z,19.60
2022-10-12T23:46:08.587Z,19.50
2022-10-12T23:48:35.995Z,19.50
2022-10-12T23:51:07.392Z,19.40
2022-10-12T23:53:36.340Z,19.40
2022-10-12T23:56:04.516Z,19.40
2022-10-12T23:58:31.917Z,19.30
